Airfield :
LOGIN :

Register | Disclaimer

   EN    FR    IT 

 










Legend :    VFR   Marginal VFR   IFR   Intensive IFR   Very Intensive IFR
Visi :
Ceiling :
>= 8 km
>= 3000ft
5 to 8 km
1000 to 3000 ft
1500m to 5 km
500 to 1000 ft
800 to 1500m
200 to 500 ft
< 800m
< 200 ft
Symbols :   Thunderstorms  Fog  Heavy snow  Heavy precipitations  Wind > 20 kt
SIGMETs :     Misc.  Thunderstorms  Icing  Turbulence  Mountain Waves  Volcanic Ashes






- Airport Elevation : 55 ft
- IATA code : DSA


EGCN - Robin Hood Doncaster Sheffield

CURRENT METAR :
  • 300920Z 16008KT 7000 SCT002 10/09 Q1005

EXPIRED METARs :
  • 300850Z VRB10G38KT 6000 SCT002 10/09 Q1005
  • 300820Z 16009KT 5000 BR BKN002 09/08 Q1006
  • 300750Z 16008KT 4000 BR BKN001 08/08 Q1006
  • 300720Z 16007KT 0600 R20/0800U FG BKN001 07/07 Q1006

TAF AMD TAF EGCN
Valid from the 30 at 09:00 until the 01 at 06:00 UTC


300900Z 3009/0106 18012KT 9999 FEW010
TEMPO 3009/3010 7000
BECMG 3011/3014 20018G35KT
TEMPO 3011/3019 6000 RA
PROB30
TEMPO 3012/3018 4000 +RA BKN012
BECMG 3016/3019 23009KT
PROB30
TEMPO 3019/0106 6000 SHRA



MET'MAP, your aeronautical weather chart ! - Copyright ORBIFLY December 2007 - Disclaimer

ORBIFLY MET'MAP TEAM :

Programming & Development : Alexandra Zaïnal
Original concept : Baudouin d'Aumeries
Technical & hardware support : Manuel Goepfert
Assistance : Marc-Olivier Méhu




SOURCES & CREDITS :

   NOAA